Weather at Hrauneyjarfoss Airport

Public forecast

Using degrees Celsius for public forecast. Weather courtesy of forecast.io.

Closest aviation weather report (METAR) to Hrauneyjarfoss Airport

Report is more than 6 hours old.

Closest report is Vestmannaeyjar Airport, 53.5 nm (99.1 km) SSW. Retrieved 2021/01/22 18:00 UTC (12 hours ago):

BIVM 221800Z 02019G44KT CAVOK M02/M08 Q1006

Closest aviation forecast (TAF) to Hrauneyjarfoss Airport

Closest forecast is Reykjavik Airport, 69.6 nm (129.0 km) W. Retrieved 2021/01/23 06:45 UTC (0 seconds ago):

TAF BIRK 230442Z 2306/2406 02022G33KT 9999 SCT025 TX00/2321Z TNM02/2309Z TEMPO 2306/2406 01028G44KT PROB40 TEMPO 2306/2309 4000 SHSN BKN014